createdAt,value
2023-02-07T00:02:38.158Z,-4.89
2023-02-07T00:07:38.018Z,-4.94
2023-02-07T00:12:37.994Z,-4.75
2023-02-07T00:17:38.038Z,-4.83
2023-02-07T00:22:37.963Z,-4.61
2023-02-07T00:27:37.877Z,-4.68
2023-02-07T00:32:38.012Z,-4.76
2023-02-07T00:37:37.621Z,-4.80
2023-02-07T00:42:37.612Z,-5.14
2023-02-07T00:47:37.580Z,-5.07
2023-02-07T00:52:37.451Z,-5.17
2023-02-07T00:57:37.525Z,-4.97
2023-02-07T01:02:37.346Z,-5.19
2023-02-07T01:07:37.296Z,-5.00
2023-02-07T01:12:37.175Z,-4.89
2023-02-07T01:17:37.138Z,-5.08
2023-02-07T01:22:37.070Z,-5.26
2023-02-07T01:27:36.988Z,-5.62
2023-02-07T01:32:36.974Z,-5.84
2023-02-07T01:37:36.930Z,-5.67
2023-02-07T01:42:37.015Z,-5.52
2023-02-07T01:47:36.857Z,-5.55
2023-02-07T01:52:36.732Z,-5.77
2023-02-07T01:57:36.645Z,-5.62
2023-02-07T02:02:36.753Z,-5.56
2023-02-07T02:07:36.553Z,-5.41
2023-02-07T02:12:36.501Z,-5.37
2023-02-07T02:17:36.396Z,-5.31
2023-02-07T02:22:36.357Z,-5.40
2023-02-07T02:27:36.362Z,-5.45
2023-02-07T02:32:36.194Z,-5.58
2023-02-07T02:37:36.213Z,-5.73
2023-02-07T02:42:36.087Z,-5.80
2023-02-07T02:47:36.102Z,-5.82
2023-02-07T02:52:49.904Z,-5.72
2023-02-07T02:57:36.929Z,-5.88
2023-02-07T03:02:35.788Z,-6.11
2023-02-07T03:07:35.869Z,-6.06
2023-02-07T03:12:35.734Z,-5.92
2023-02-07T03:17:35.709Z,-5.94
2023-02-07T03:22:35.669Z,-6.15
2023-02-07T03:27:35.496Z,-6.19
2023-02-07T03:32:35.439Z,-6.44
2023-02-07T03:37:35.506Z,-6.63
2023-02-07T03:42:35.383Z,-6.40
2023-02-07T03:47:35.454Z,-6.16
2023-02-07T03:52:35.213Z,-6.11
2023-02-07T03:57:35.204Z,-5.88
2023-02-07T04:02:35.125Z,-5.72
2023-02-07T04:07:35.040Z,-5.73
2023-02-07T04:12:35.005Z,-6.21
2023-02-07T04:17:34.912Z,-6.37
2023-02-07T04:22:34.915Z,-6.34
2023-02-07T04:27:34.796Z,-6.19
2023-02-07T04:32:34.756Z,-6.06
2023-02-07T04:37:34.694Z,-6.08
2023-02-07T04:42:35.370Z,-6.44
2023-02-07T04:47:34.696Z,-6.19
2023-02-07T04:52:34.622Z,-6.18
2023-02-07T04:57:34.574Z,-6.13
2023-02-07T05:02:34.431Z,-6.45
2023-02-07T05:07:34.364Z,-6.31
2023-02-07T05:12:34.267Z,-6.33
2023-02-07T05:17:34.278Z,-6.45
2023-02-07T05:22:34.255Z,-6.36
2023-02-07T05:27:34.044Z,-6.06
2023-02-07T05:32:33.927Z,-6.23
2023-02-07T05:37:34.040Z,-6.37
2023-02-07T05:42:33.888Z,-6.47
2023-02-07T05:47:33.862Z,-6.61
2023-02-07T05:52:35.703Z,-6.33
2023-02-07T05:57:33.653Z,-6.23
2023-02-07T06:02:33.798Z,-6.21
2023-02-07T06:07:33.596Z,-6.24
2023-02-07T06:12:33.455Z,-6.21
2023-02-07T06:17:33.384Z,-6.13
2023-02-07T06:22:33.450Z,-6.21
2023-02-07T06:27:33.385Z,-6.26
2023-02-07T06:32:34.337Z,-6.11
2023-02-07T06:37:33.146Z,-6.06
2023-02-07T06:42:33.046Z,-6.21
2023-02-07T06:47:33.441Z,-6.12
2023-02-07T06:52:33.028Z,-6.23
2023-02-07T06:57:32.915Z,-6.11
2023-02-07T07:02:32.961Z,-6.08
2023-02-07T07:07:32.848Z,-5.67
2023-02-07T07:12:32.751Z,-5.11
2023-02-07T07:17:32.635Z,-4.50
2023-02-07T07:22:32.605Z,-3.94
2023-02-07T07:27:32.519Z,-3.44
2023-02-07T07:32:34.462Z,-2.68
2023-02-07T07:37:32.350Z,-2.32
2023-02-07T07:42:32.359Z,-2.06
2023-02-07T07:47:32.261Z,-1.87
2023-02-07T07:52:32.208Z,-1.72
2023-02-07T07:57:32.097Z,-1.42
2023-02-07T08:02:32.169Z,-1.25
2023-02-07T08:07:32.003Z,-1.35
2023-02-07T08:12:31.934Z,-1.20
2023-02-07T08:17:31.851Z,-1.24
2023-02-07T08:22:31.860Z,-1.23
2023-02-07T08:27:31.798Z,-1.23
2023-02-07T08:32:31.820Z,-1.24
2023-02-07T08:37:31.637Z,-1.07
2023-02-07T08:42:31.529Z,-1.03
2023-02-07T08:47:31.480Z,-1.21
2023-02-07T08:52:31.431Z,-1.31
2023-02-07T08:57:31.305Z,-1.33
2023-02-07T09:02:31.335Z,-1.21
2023-02-07T09:07:31.237Z,-1.36
2023-02-07T09:12:31.219Z,-1.23
2023-02-07T09:17:31.186Z,-1.21
2023-02-07T09:22:31.112Z,-0.95
2023-02-07T09:27:30.965Z,-0.80
2023-02-07T09:32:30.926Z,-0.72
2023-02-07T09:37:34.917Z,-0.68
2023-02-07T09:42:31.777Z,-0.62
2023-02-07T09:47:30.668Z,-0.39
2023-02-07T09:52:30.604Z,-0.30
2023-02-07T09:57:30.599Z,-0.27
2023-02-07T10:02:30.515Z,-0.26
2023-02-07T10:07:30.547Z,-0.11
2023-02-07T10:12:30.306Z,0.06
2023-02-07T10:17:31.864Z,0.24
2023-02-07T10:22:30.258Z,0.24
2023-02-07T10:27:30.110Z,0.23
2023-02-07T10:32:30.202Z,0.02
2023-02-07T10:37:30.015Z,0.07
2023-02-07T10:42:30.004Z,0.42
2023-02-07T10:47:29.853Z,0.79
2023-02-07T10:52:29.832Z,0.96
2023-02-07T10:57:29.722Z,0.79
2023-02-07T11:02:29.719Z,0.62
2023-02-07T11:07:39.459Z,0.48
2023-02-07T11:12:30.554Z,0.68
2023-02-07T11:17:29.541Z,0.86
2023-02-07T11:22:29.390Z,1.10
2023-02-07T11:27:29.366Z,1.33
2023-02-07T11:32:29.365Z,1.62
2023-02-07T11:37:29.242Z,1.71
2023-02-07T11:42:29.154Z,1.57
2023-02-07T11:47:29.145Z,1.64
2023-02-07T11:52:29.082Z,1.80
2023-02-07T11:57:28.987Z,1.98
2023-02-07T12:02:28.945Z,2.04
2023-02-07T12:07:28.894Z,2.12
2023-02-07T12:12:28.830Z,2.10
2023-02-07T12:17:28.704Z,2.15
2023-02-07T12:22:28.749Z,2.26
2023-02-07T12:27:28.575Z,2.17
2023-02-07T12:32:28.721Z,2.22
2023-02-07T12:37:28.597Z,2.22
2023-02-07T12:42:28.526Z,2.10
2023-02-07T12:47:28.349Z,2.04
2023-02-07T12:52:28.304Z,2.19
2023-02-07T12:57:28.271Z,2.23
2023-02-07T13:02:28.186Z,2.13
2023-02-07T13:07:28.068Z,2.23
2023-02-07T13:12:27.997Z,2.45
2023-02-07T13:17:27.964Z,2.37
2023-02-07T13:22:27.884Z,2.31
2023-02-07T13:27:27.834Z,2.20
2023-02-07T13:32:27.748Z,2.19
2023-02-07T13:37:27.651Z,2.08
2023-02-07T13:42:27.732Z,2.08
2023-02-07T13:47:27.534Z,2.19
2023-02-07T13:52:27.546Z,2.27
2023-02-07T13:57:27.404Z,2.30
2023-02-07T14:02:27.394Z,2.31
2023-02-07T14:07:27.325Z,2.59
2023-02-07T14:12:27.278Z,2.71
2023-02-07T14:17:27.174Z,2.81
2023-02-07T14:22:27.960Z,2.79
2023-02-07T14:27:27.106Z,2.59
2023-02-07T14:32:26.978Z,2.59
2023-02-07T14:37:26.967Z,2.55
2023-02-07T14:42:27.059Z,2.45
2023-02-07T14:47:27.259Z,2.15
2023-02-07T14:52:26.916Z,1.94
2023-02-07T14:57:26.693Z,1.65
2023-02-07T15:02:26.640Z,1.50
2023-02-07T15:07:26.530Z,1.15
2023-02-07T15:12:27.640Z,1.03
2023-02-07T15:17:31.009Z,0.89
2023-02-07T15:22:27.306Z,0.71
2023-02-07T15:27:26.209Z,0.71
2023-02-07T15:32:26.351Z,0.58
2023-02-07T15:37:26.102Z,0.48
2023-02-07T15:42:26.117Z,0.39
2023-02-07T15:47:25.952Z,0.20
2023-02-07T15:52:25.940Z,0.09
2023-02-07T15:57:25.863Z,0.05
2023-02-07T16:02:25.840Z,-0.09
2023-02-07T16:07:25.739Z,-0.13
2023-02-07T16:12:26.136Z,-0.37
2023-02-07T16:17:25.561Z,-0.36
2023-02-07T16:22:25.522Z,-0.33
2023-02-07T16:27:25.455Z,-0.44
2023-02-07T16:32:25.442Z,-0.47
2023-02-07T16:37:25.419Z,-0.60
2023-02-07T16:42:25.368Z,-0.69
2023-02-07T16:47:25.160Z,-0.86
2023-02-07T16:52:25.247Z,-0.92
2023-02-07T16:57:25.091Z,-0.99
2023-02-07T17:02:25.141Z,-1.10
2023-02-07T17:07:25.034Z,-1.24
2023-02-07T17:12:24.948Z,-1.33
2023-02-07T17:17:24.791Z,-1.30
2023-02-07T17:22:24.908Z,-1.24
2023-02-07T17:27:24.722Z,-1.36
2023-02-07T17:32:24.613Z,-1.36
2023-02-07T17:37:24.586Z,-1.33
2023-02-07T17:42:24.457Z,-1.41
2023-02-07T17:47:24.460Z,-1.59
2023-02-07T17:52:24.362Z,-1.48
2023-02-07T17:57:24.336Z,-1.70
2023-02-07T18:02:24.413Z,-1.62
2023-02-07T18:07:24.197Z,-1.63
2023-02-07T18:12:24.114Z,-1.62
2023-02-07T18:17:24.406Z,-1.57
2023-02-07T18:22:24.031Z,-1.69
2023-02-07T18:27:23.904Z,-1.90
2023-02-07T18:32:23.894Z,-2.06
2023-02-07T18:37:23.825Z,-2.05
2023-02-07T18:42:23.757Z,-2.17
2023-02-07T18:47:23.641Z,-2.33
2023-02-07T18:52:23.580Z,-2.29
2023-02-07T18:57:23.536Z,-2.38
2023-02-07T19:02:23.462Z,-2.38
2023-02-07T19:07:23.388Z,-2.57
2023-02-07T19:12:23.360Z,-2.50
2023-02-07T19:17:25.159Z,-2.39
2023-02-07T19:22:34.691Z,-2.42
2023-02-07T19:27:24.138Z,-2.58
2023-02-07T19:32:23.038Z,-2.50
2023-02-07T19:37:25.322Z,-2.61
2023-02-07T19:42:22.983Z,-2.64
2023-02-07T19:47:22.857Z,-2.74
2023-02-07T19:52:22.816Z,-2.63
2023-02-07T19:57:22.768Z,-2.78
2023-02-07T20:02:22.662Z,-2.71
2023-02-07T20:07:23.097Z,-2.82
2023-02-07T20:12:22.629Z,-2.85
2023-02-07T20:17:23.057Z,-2.93
2023-02-07T20:22:22.504Z,-3.08
2023-02-07T20:27:22.434Z,-3.28
2023-02-07T20:32:22.429Z,-3.36
2023-02-07T20:37:22.255Z,-3.53
2023-02-07T20:42:22.199Z,-3.61
2023-02-07T20:47:22.105Z,-3.65
2023-02-07T20:52:22.051Z,-3.56
2023-02-07T20:57:21.961Z,-3.35
2023-02-07T21:02:21.931Z,-3.32
2023-02-07T21:07:21.887Z,-3.46
2023-02-07T21:12:21.812Z,-3.76
2023-02-07T21:17:21.712Z,-3.81
2023-02-07T21:22:21.703Z,-3.81
2023-02-07T21:27:21.597Z,-3.78
2023-02-07T21:32:21.570Z,-3.80
2023-02-07T21:37:21.458Z,-3.83
2023-02-07T21:42:21.399Z,-3.75
2023-02-07T21:47:21.410Z,-3.90
2023-02-07T21:52:21.334Z,-3.96
2023-02-07T21:57:21.252Z,-3.99
2023-02-07T22:02:21.204Z,-4.07
2023-02-07T22:07:21.111Z,-3.96
2023-02-07T22:12:21.070Z,-4.04
2023-02-07T22:17:21.044Z,-4.22
2023-02-07T22:22:20.938Z,-4.22
2023-02-07T22:27:20.860Z,-4.36
2023-02-07T22:32:20.789Z,-4.28
2023-02-07T22:37:20.708Z,-4.25
2023-02-07T22:42:20.650Z,-4.38
2023-02-07T22:47:20.625Z,-4.37
2023-02-07T22:52:20.519Z,-4.12
2023-02-07T22:57:20.506Z,-4.15
2023-02-07T23:02:20.423Z,-4.25
2023-02-07T23:07:20.396Z,-4.54
2023-02-07T23:12:20.335Z,-4.50
2023-02-07T23:17:20.227Z,-4.55
2023-02-07T23:22:20.158Z,-4.40
2023-02-07T23:27:20.054Z,-4.37
2023-02-07T23:32:20.097Z,-4.48
2023-02-07T23:37:19.922Z,-4.58
2023-02-07T23:42:19.945Z,-4.64
2023-02-07T23:47:19.818Z,-4.59
2023-02-07T23:52:19.738Z,-4.59
2023-02-07T23:57:19.744Z,-4.58
